• Join FlightAware (Why Join?)
  • Login
  • US Flag 
05:18AM EST


 

Airport Tracker/Info


-or-


 

Live Flight TrackerFlight Track Log ✈ VH-XGW ✈ 29-Apr-2013 ✈ YSCB / CBR - YSBK / BWU

Flight Track Log - Related Links

Times and Time Zones

All times are in EDT time to prevent confusion due to time zone crossing. See the VH-XGW flight status page for this flight to view local times or setup timezone preferences in your user account.

Time Position Orientation Groundspeed Altitude Reporting Facility
EDT Latitude Longitude Course Direction KTS MPH feet Rate Location/Type
11:29PM -35.2648 149.1965 30° Northeast 126 145 3,000  Level Aus ATC (RADAR)
11:31PM -35.2155 149.2309 30° Northeast 145 167 4,500 960 Climbing Aus ATC (RADAR)
11:32PM -35.1734 149.2819 45° Northeast 141 162 6,000 1,020 Climbing Aus ATC (RADAR)
11:34PM -35.1180 149.3358 39° Northeast 152 175 7,800 900 Climbing Aus ATC (RADAR)
11:35PM -35.0601 149.3871 36° Northeast 164 189 9,100 360 Climbing Aus ATC (RADAR)
11:37PM -34.9933 149.4471 36° Northeast 188 216 9,100 -60 Level Aus ATC (RADAR)
11:38PM -34.9256 149.5013 33° Northeast 186 214 9,000 -120 Descending Aus ATC (RADAR)
11:40PM -34.8579 149.5548 33° Northeast 183 211 8,900  Descending Aus ATC (RADAR)
11:42PM -34.7862 149.6113 33° Northeast 184 212 9,000  Climbing Aus ATC (RADAR)
11:43PM -34.7176 149.6653 33° Northeast 184 212 8,900 -60 Descending Aus ATC (RADAR)
11:45PM -34.6553 149.7152 33° Northeast 181 208 8,900  Level Aus ATC (RADAR)
11:46PM -34.5830 149.7710 32° Northeast 189 217 8,900  Level Aus ATC (RADAR)
11:48PM -34.5101 149.8269 32° Northeast 185 213 9,000  Climbing Aus ATC (RADAR)
11:50PM -34.4395 149.8839 34° Northeast 181 208 9,000  Level Aus ATC (RADAR)
11:51PM -34.3778 149.9330 33° Northeast 184 212 9,000 -60 Level Aus ATC (RADAR)
11:53PM -34.3058 149.9928 34° Northeast 189 217 8,900 -60 Descending Aus ATC (RADAR)
11:55PM -34.2359 150.0525 35° Northeast 186 214 8,900  Level Aus ATC (RADAR)
11:56PM -34.1678 150.1100 35° Northeast 186 214 8,900 -240 Level Aus ATC (RADAR)
11:58PM -34.1127 150.1832 48° Northeast 199 229 8,300 -600 Descending Aus ATC (RADAR)
11:59PM -34.0466 150.2621 45° Northeast 207 238 7,000 -660 Descending Aus ATC (RADAR)
12:01AM -33.9778 150.3454 45° Northeast 196 226 6,100 -600 Descending Aus ATC (RADAR)
12:03AM -33.9160 150.4235 46° Northeast 188 216 5,200 -660 Descending Aus ATC (RADAR)
12:04AM -33.9156 150.5247 90° East 192 221 4,200 -720 Descending Aus ATC (RADAR)
12:06AM -33.9220 150.6276 94° East 185 213 3,100 -540 Descending Aus ATC (RADAR)
12:07AM -33.9312 150.7327 96° East 171 197 2,400 -420 Descending Aus ATC (RADAR)
12:09AM -33.9318 150.8242 90° East 165 190 1,700 -480 Descending Aus ATC (RADAR)
12:10AM -33.9213 150.9014 81° East 160 184 1,100 -360 Descending Aus ATC (RADAR)
12:12AM -33.9090 150.9664 77° East 104 120 600 -300 Descending Aus ATC (RADAR)